createdAt,value
2023-02-17T00:01:17.781Z,4.82
2023-02-17T00:03:48.601Z,4.53
2023-02-17T00:06:17.465Z,4.68
2023-02-17T00:08:45.417Z,4.90
2023-02-17T00:11:13.416Z,4.95
2023-02-17T00:13:42.512Z,4.55
2023-02-17T00:16:21.880Z,4.97
2023-02-17T00:18:57.987Z,4.72
2023-02-17T00:21:32.116Z,4.53
2023-02-17T00:24:00.360Z,4.65
2023-02-17T00:26:27.782Z,7.00
2023-02-17T00:28:55.156Z,4.18
2023-02-17T00:31:23.878Z,5.43
2023-02-17T00:33:55.748Z,4.80
2023-02-17T00:36:23.432Z,4.72
2023-02-17T00:38:51.022Z,4.68
2023-02-17T00:41:19.239Z,4.30
2023-02-17T00:43:47.705Z,4.35
2023-02-17T00:46:16.389Z,4.97
2023-02-17T00:48:44.051Z,4.25
2023-02-17T00:51:12.112Z,4.32
2023-02-17T00:53:47.704Z,4.22
2023-02-17T00:56:22.702Z,4.10
2023-02-17T00:59:03.421Z,3.70
2023-02-17T01:01:38.161Z,4.40
2023-02-17T01:04:21.264Z,4.32
2023-02-17T01:07:04.044Z,4.30
2023-02-17T01:10:04.447Z,3.72
2023-02-17T01:15:37.691Z,3.88
2023-02-17T01:18:23.149Z,4.13
2023-02-17T01:21:16.867Z,4.00
2023-02-17T01:23:59.904Z,3.80
2023-02-17T01:27:11.875Z,3.80
2023-02-17T01:29:53.035Z,3.42
2023-02-17T01:36:07.345Z,3.42
2023-02-17T01:38:47.513Z,3.75
2023-02-17T01:41:30.620Z,2.95
2023-02-17T01:44:13.499Z,4.53
2023-02-17T01:46:43.330Z,3.47
2023-02-17T01:49:15.217Z,4.05
2023-02-17T01:51:43.578Z,3.55
2023-02-17T01:54:24.391Z,3.42
2023-02-17T01:56:52.401Z,3.33
2023-02-17T01:59:22.064Z,3.65
2023-02-17T02:02:21.709Z,3.30
2023-02-17T02:05:03.777Z,3.17
2023-02-17T02:08:09.252Z,3.38
2023-02-17T02:11:19.536Z,4.30
2023-02-17T02:13:55.646Z,4.60
2023-02-17T02:17:03.419Z,3.83
2023-02-17T02:20:03.379Z,4.50
2023-02-17T02:23:16.899Z,4.55
2023-02-17T02:26:19.594Z,4.65
2023-02-17T02:29:40.926Z,4.88
2023-02-17T02:32:49.640Z,4.10
2023-02-17T02:35:31.640Z,4.57
2023-02-17T02:38:37.590Z,4.30
2023-02-17T02:41:12.999Z,5.20
2023-02-17T02:43:41.796Z,5.82
2023-02-17T02:46:09.518Z,4.80
2023-02-17T02:48:37.950Z,5.25
2023-02-17T02:51:37.676Z,4.72
2023-02-17T02:54:17.756Z,5.20
2023-02-17T02:57:03.719Z,4.55
2023-02-17T03:00:18.155Z,4.10
2023-02-17T03:03:05.159Z,4.57
2023-02-17T03:05:58.499Z,4.93
2023-02-17T03:08:35.473Z,4.38
2023-02-17T03:11:03.584Z,3.88
2023-02-17T03:13:34.409Z,4.05
2023-02-17T03:16:01.788Z,6.18
2023-02-17T03:18:32.856Z,4.20
2023-02-17T03:21:13.519Z,4.00
2023-02-17T03:23:40.782Z,4.50
2023-02-17T03:26:08.307Z,4.40
2023-02-17T03:28:35.740Z,4.13
2023-02-17T03:31:03.116Z,4.13
2023-02-17T03:33:30.594Z,4.00
2023-02-17T03:35:57.858Z,4.07
2023-02-17T03:38:25.138Z,4.05
2023-02-17T03:40:54.846Z,4.68
2023-02-17T03:43:22.134Z,4.15
2023-02-17T03:45:49.527Z,5.65
2023-02-17T03:48:16.825Z,4.72
2023-02-17T03:50:44.100Z,4.05
2023-02-17T03:53:11.995Z,4.70
2023-02-17T03:55:39.478Z,4.55
2023-02-17T03:58:06.856Z,3.92
2023-02-17T04:00:34.173Z,4.78
2023-02-17T04:03:01.484Z,3.40
2023-02-17T04:05:28.796Z,4.18
2023-02-17T04:07:56.122Z,3.90
2023-02-17T04:10:23.402Z,3.20
2023-02-17T04:12:50.703Z,4.03
2023-02-17T04:15:18.017Z,4.15
2023-02-17T04:17:45.310Z,3.28
2023-02-17T04:20:12.897Z,3.75
2023-02-17T04:22:40.173Z,3.25
2023-02-17T04:25:07.633Z,3.17
2023-02-17T04:27:34.894Z,3.22
2023-02-17T04:30:02.362Z,3.35
2023-02-17T04:32:29.756Z,3.30
2023-02-17T04:34:57.038Z,3.53
2023-02-17T04:37:24.523Z,2.92
2023-02-17T04:39:51.972Z,2.65
2023-02-17T04:42:19.281Z,3.00
2023-02-17T04:44:46.543Z,3.20
2023-02-17T04:47:13.818Z,3.00
2023-02-17T04:49:43.058Z,2.65
2023-02-17T04:52:10.312Z,2.80
2023-02-17T04:54:37.727Z,2.05
2023-02-17T04:57:05.015Z,2.00
2023-02-17T04:59:32.263Z,1.90
2023-02-17T05:01:59.543Z,2.00
2023-02-17T05:04:26.863Z,2.67
2023-02-17T05:06:54.273Z,1.88
2023-02-17T05:09:21.578Z,1.77
2023-02-17T05:11:49.008Z,1.98
2023-02-17T05:14:16.305Z,1.55
2023-02-17T05:16:43.703Z,2.30
2023-02-17T05:19:11.063Z,2.95
2023-02-17T05:21:38.473Z,1.60
2023-02-17T05:24:06.078Z,1.52
2023-02-17T05:26:33.361Z,1.42
2023-02-17T05:29:00.666Z,1.33
2023-02-17T05:31:28.054Z,1.30
2023-02-17T05:33:55.866Z,1.30
2023-02-17T05:36:23.104Z,1.40
2023-02-17T05:38:51.309Z,2.22
2023-02-17T05:41:19.773Z,2.53
2023-02-17T05:43:47.425Z,2.33
2023-02-17T05:46:15.349Z,4.10
2023-02-17T05:48:42.804Z,4.70
2023-02-17T05:51:10.148Z,1.52
2023-02-17T05:53:37.396Z,1.20
2023-02-17T05:56:05.348Z,1.13
2023-02-17T05:58:32.817Z,0.90
2023-02-17T06:01:02.758Z,1.10
2023-02-17T06:03:30.007Z,1.83
2023-02-17T06:05:57.262Z,1.42
2023-02-17T06:08:24.566Z,1.02
2023-02-17T06:10:53.844Z,0.98
2023-02-17T06:13:21.352Z,1.60
2023-02-17T06:15:48.927Z,1.30
2023-02-17T06:18:16.540Z,1.17
2023-02-17T06:20:43.927Z,1.02
2023-02-17T06:23:11.662Z,0.85
2023-02-17T06:25:38.988Z,1.20
2023-02-17T06:28:06.314Z,1.63
2023-02-17T06:30:33.835Z,1.05
2023-02-17T06:33:01.239Z,3.08
2023-02-17T06:35:28.562Z,1.77
2023-02-17T06:37:55.908Z,2.53
2023-02-17T06:40:23.331Z,2.42
2023-02-17T06:42:50.640Z,0.82
2023-02-17T06:45:18.119Z,1.20
2023-02-17T06:47:45.362Z,0.73
2023-02-17T06:50:13.219Z,0.65
2023-02-17T06:52:40.650Z,0.60
2023-02-17T06:55:08.293Z,0.80
2023-02-17T06:57:35.543Z,0.70
2023-02-17T07:00:04.605Z,1.45
2023-02-17T07:02:32.004Z,0.80
2023-02-17T07:04:59.402Z,0.90
2023-02-17T07:07:26.733Z,1.05
2023-02-17T07:09:54.010Z,1.13
2023-02-17T07:12:21.370Z,0.80
2023-02-17T07:14:48.812Z,0.73
2023-02-17T07:17:16.125Z,1.10
2023-02-17T07:19:43.388Z,2.95
2023-02-17T07:22:10.695Z,2.63
2023-02-17T07:24:38.009Z,2.00
2023-02-17T07:27:06.546Z,1.40
2023-02-17T07:29:34.950Z,0.75
2023-02-17T07:32:02.221Z,1.10
2023-02-17T07:34:29.512Z,0.85
2023-02-17T07:36:56.858Z,1.10
2023-02-17T07:39:24.160Z,0.88
2023-02-17T07:41:51.684Z,0.85
2023-02-17T07:44:19.310Z,1.10
2023-02-17T07:46:46.626Z,0.90
2023-02-17T07:49:14.873Z,2.72
2023-02-17T07:51:42.172Z,1.67
2023-02-17T07:54:09.453Z,2.00
2023-02-17T07:56:36.781Z,1.58
2023-02-17T07:59:04.050Z,1.35
2023-02-17T08:01:31.478Z,18.90
2023-02-17T08:03:58.808Z,2.30
2023-02-17T08:06:26.918Z,1.85
2023-02-17T08:09:13.618Z,1.38
2023-02-17T08:12:00.500Z,1.27
2023-02-17T08:16:56.188Z,1.00
2023-02-17T08:19:23.562Z,1.10
2023-02-17T08:21:50.940Z,1.40
2023-02-17T08:24:19.731Z,1.52
2023-02-17T08:26:47.570Z,4.05
2023-02-17T08:29:15.244Z,1.17
2023-02-17T08:31:43.066Z,1.30
2023-02-17T08:34:12.188Z,0.93
2023-02-17T08:36:39.868Z,0.90
2023-02-17T08:39:12.360Z,3.17
2023-02-17T08:41:40.055Z,0.90
2023-02-17T08:44:14.321Z,0.80
2023-02-17T08:46:42.499Z,2.58
2023-02-17T08:49:09.913Z,3.63
2023-02-17T08:51:37.568Z,4.00
2023-02-17T08:54:06.562Z,1.05
2023-02-17T08:56:34.714Z,2.28
2023-02-17T08:59:02.341Z,1.67
2023-02-17T09:01:30.620Z,1.80
2023-02-17T09:03:59.455Z,0.98
2023-02-17T09:06:37.081Z,2.10
2023-02-17T09:09:07.342Z,1.50
2023-02-17T09:11:34.967Z,1.15
2023-02-17T09:14:02.713Z,2.28
2023-02-17T09:16:30.429Z,1.60
2023-02-17T09:18:57.836Z,1.15
2023-02-17T09:21:25.261Z,0.70
2023-02-17T09:23:53.885Z,0.90
2023-02-17T09:26:21.724Z,1.70
2023-02-17T09:28:49.494Z,1.38
2023-02-17T09:31:25.754Z,1.85
2023-02-17T09:33:54.555Z,1.33
2023-02-17T09:36:25.085Z,1.20
2023-02-17T09:38:52.813Z,1.10
2023-02-17T09:41:45.039Z,0.70
2023-02-17T09:44:47.462Z,1.17
2023-02-17T09:47:37.633Z,1.05
2023-02-17T09:50:12.104Z,1.90
2023-02-17T09:52:49.165Z,2.05
2023-02-17T09:55:30.097Z,0.85
2023-02-17T09:58:07.119Z,1.98
2023-02-17T10:00:41.417Z,1.25
2023-02-17T10:03:20.473Z,1.23
2023-02-17T10:06:06.539Z,1.05
2023-02-17T10:08:48.171Z,0.57
2023-02-17T10:11:23.322Z,0.88
2023-02-17T10:13:53.048Z,0.80
2023-02-17T10:16:31.043Z,1.40
2023-02-17T10:19:30.754Z,0.60
2023-02-17T10:22:16.762Z,0.60
2023-02-17T10:24:44.544Z,1.00
2023-02-17T10:27:35.870Z,1.42
2023-02-17T10:30:17.617Z,0.70
2023-02-17T10:33:12.943Z,0.70
2023-02-17T10:35:50.373Z,1.05
2023-02-17T10:38:34.392Z,0.60
2023-02-17T10:41:05.822Z,0.90
2023-02-17T10:43:33.728Z,0.70
2023-02-17T10:46:05.856Z,1.10
2023-02-17T10:48:35.924Z,0.70
2023-02-17T10:51:03.590Z,0.80
2023-02-17T10:53:35.480Z,1.40
2023-02-17T10:56:33.122Z,0.93
2023-02-17T10:59:53.334Z,1.00
2023-02-17T11:02:28.124Z,0.85
2023-02-17T11:04:55.827Z,1.02
2023-02-17T11:07:32.574Z,0.90
2023-02-17T11:10:03.717Z,0.73
2023-02-17T11:12:40.410Z,0.80
2023-02-17T11:15:26.429Z,0.80
2023-02-17T11:17:54.246Z,0.88
2023-02-17T11:20:21.659Z,0.60
2023-02-17T11:23:20.853Z,0.65
2023-02-17T11:26:01.002Z,0.93
2023-02-17T11:28:31.318Z,0.93
2023-02-17T11:31:07.283Z,0.70
2023-02-17T11:33:40.580Z,1.00
2023-02-17T11:36:21.234Z,0.98
2023-02-17T11:38:48.630Z,1.00
2023-02-17T11:41:16.011Z,1.00
2023-02-17T11:44:01.313Z,1.00
2023-02-17T11:46:47.200Z,0.75
2023-02-17T11:49:51.564Z,0.80
2023-02-17T11:52:33.825Z,0.75
2023-02-17T11:55:17.928Z,1.15
2023-02-17T11:57:47.978Z,1.17
2023-02-17T12:00:31.400Z,0.90
2023-02-17T12:03:04.628Z,0.85
2023-02-17T12:06:14.277Z,1.13
2023-02-17T12:08:53.587Z,1.00
2023-02-17T12:11:37.296Z,0.77
2023-02-17T12:20:50.112Z,1.65
2023-02-17T12:23:46.652Z,1.50
2023-02-17T12:26:44.881Z,1.17
2023-02-17T12:29:41.713Z,1.02
2023-02-17T12:32:34.691Z,1.95
2023-02-17T12:35:23.389Z,1.52
2023-02-17T12:38:13.157Z,1.40
2023-02-17T12:40:47.218Z,1.77
2023-02-17T12:43:29.674Z,1.25
2023-02-17T12:46:00.423Z,1.00
2023-02-17T12:48:31.196Z,1.77
2023-02-17T12:51:12.091Z,1.58
2023-02-17T12:53:45.241Z,1.27
2023-02-17T12:56:42.840Z,0.93
2023-02-17T12:59:33.545Z,1.38
2023-02-17T13:02:19.545Z,0.90
2023-02-17T13:04:51.960Z,1.25
2023-02-17T13:07:40.045Z,1.27
2023-02-17T13:10:18.513Z,1.23
2023-02-17T13:12:57.122Z,1.40
2023-02-17T13:15:39.589Z,1.33
2023-02-17T13:18:28.466Z,1.17
2023-02-17T13:21:27.993Z,0.98
2023-02-17T13:24:02.829Z,1.35
2023-02-17T13:26:33.201Z,1.40
2023-02-17T13:29:19.504Z,1.23
2023-02-17T13:31:53.169Z,1.40
2023-02-17T13:34:47.742Z,1.25
2023-02-17T13:37:34.480Z,1.17
2023-02-17T13:40:25.186Z,1.08
2023-02-17T13:42:57.588Z,1.17
2023-02-17T13:45:31.782Z,1.10
2023-02-17T13:48:12.657Z,1.02
2023-02-17T13:50:53.680Z,1.05
2023-02-17T13:53:25.586Z,0.80
2023-02-17T13:55:55.708Z,1.00
2023-02-17T13:58:34.824Z,1.27
2023-02-17T14:01:04.642Z,1.83
2023-02-17T14:03:45.771Z,1.30
2023-02-17T14:06:26.053Z,1.50
2023-02-17T14:08:54.208Z,1.35
2023-02-17T14:11:25.064Z,1.02
2023-02-17T14:13:56.253Z,0.95
2023-02-17T14:16:33.459Z,1.02
2023-02-17T14:19:07.269Z,0.90
2023-02-17T14:21:36.375Z,0.80
2023-02-17T14:24:04.598Z,0.95
2023-02-17T14:26:38.094Z,0.93
2023-02-17T14:29:09.747Z,0.80
2023-02-17T14:31:46.166Z,0.95
2023-02-17T14:37:21.334Z,1.17
2023-02-17T14:39:49.148Z,0.68
2023-02-17T14:42:16.829Z,1.00
2023-02-17T14:44:44.677Z,0.98
2023-02-17T14:47:11.980Z,0.80
2023-02-17T14:49:39.408Z,0.60
2023-02-17T14:52:20.121Z,1.13
2023-02-17T14:54:47.639Z,0.93
2023-02-17T14:57:16.598Z,0.88
2023-02-17T14:59:44.282Z,0.93
2023-02-17T15:02:15.735Z,1.05
2023-02-17T15:04:43.345Z,1.00
2023-02-17T15:07:16.589Z,1.10
2023-02-17T15:09:45.924Z,0.90
2023-02-17T15:12:19.995Z,0.88
2023-02-17T15:14:48.819Z,1.08
2023-02-17T15:17:18.193Z,0.98
2023-02-17T15:19:45.695Z,0.73
2023-02-17T15:22:15.039Z,0.88
2023-02-17T15:24:42.636Z,1.25
2023-02-17T15:27:15.100Z,1.00
2023-02-17T15:29:42.428Z,0.77
2023-02-17T15:32:19.135Z,0.80
2023-02-17T15:34:46.989Z,1.20
2023-02-17T15:37:14.369Z,1.00
2023-02-17T15:39:41.679Z,0.80
2023-02-17T15:42:14.154Z,1.30
2023-02-17T15:44:52.215Z,0.95
2023-02-17T15:47:20.912Z,1.13
2023-02-17T15:49:48.264Z,1.25
2023-02-17T15:52:15.805Z,1.42
2023-02-17T15:54:43.845Z,1.30
2023-02-17T15:57:30.882Z,1.20
2023-02-17T15:59:58.334Z,1.15
2023-02-17T16:02:26.180Z,1.08
2023-02-17T16:04:53.576Z,1.30
2023-02-17T16:07:20.823Z,1.38
2023-02-17T16:09:48.222Z,1.30
2023-02-17T16:12:26.436Z,1.00
2023-02-17T16:14:54.667Z,1.10
2023-02-17T16:17:22.100Z,1.40
2023-02-17T16:19:49.410Z,1.83
2023-02-17T16:22:16.714Z,0.93
2023-02-17T16:24:44.036Z,1.10
2023-02-17T16:27:15.452Z,0.80
2023-02-17T16:29:43.126Z,1.40
2023-02-17T16:32:12.902Z,0.90
2023-02-17T16:34:40.597Z,1.30
2023-02-17T16:37:16.209Z,1.10
2023-02-17T16:39:45.581Z,1.10
2023-02-17T16:42:15.354Z,0.82
2023-02-17T16:44:42.950Z,0.90
2023-02-17T16:47:20.663Z,0.90
2023-02-17T16:49:48.607Z,0.70
2023-02-17T16:52:27.612Z,1.08
2023-02-17T16:54:54.951Z,0.70
2023-02-17T16:57:22.782Z,0.90
2023-02-17T16:59:50.286Z,1.13
2023-02-17T17:02:17.681Z,0.90
2023-02-17T17:04:45.141Z,0.95
2023-02-17T17:07:16.121Z,0.90
2023-02-17T17:09:48.799Z,0.95
2023-02-17T17:12:19.764Z,1.10
2023-02-17T17:14:47.092Z,1.67
2023-02-17T17:17:14.536Z,0.70
2023-02-17T17:19:41.822Z,1.02
2023-02-17T17:22:11.598Z,0.85
2023-02-17T17:24:38.913Z,1.02
2023-02-17T17:27:06.488Z,0.80
2023-02-17T17:29:33.785Z,0.80
2023-02-17T17:32:01.170Z,0.63
2023-02-17T17:34:28.528Z,1.08
2023-02-17T17:36:55.925Z,0.80
2023-02-17T17:39:24.327Z,1.00
2023-02-17T17:41:52.019Z,0.80
2023-02-17T17:44:20.636Z,0.95
2023-02-17T17:46:48.528Z,1.00
2023-02-17T17:49:18.255Z,0.75
2023-02-17T17:51:45.751Z,0.85
2023-02-17T17:54:13.130Z,0.85
2023-02-17T17:56:45.264Z,0.93
2023-02-17T17:59:13.428Z,0.85
2023-02-17T18:01:40.956Z,0.85
2023-02-17T18:04:09.451Z,0.80
2023-02-17T18:06:47.271Z,0.77
2023-02-17T18:09:31.394Z,0.73
2023-02-17T18:12:02.804Z,0.90
2023-02-17T18:14:30.625Z,0.90
2023-02-17T18:16:58.506Z,0.90
2023-02-17T18:19:26.531Z,0.80
2023-02-17T18:21:53.918Z,0.95
2023-02-17T18:24:21.273Z,0.70
2023-02-17T18:26:51.943Z,0.95
2023-02-17T18:29:19.801Z,0.88
2023-02-17T18:31:47.896Z,0.93
2023-02-17T18:34:15.451Z,1.30
2023-02-17T18:36:42.793Z,1.00
2023-02-17T18:39:10.217Z,1.83
2023-02-17T18:41:37.646Z,1.10
2023-02-17T18:44:06.090Z,1.27
2023-02-17T18:46:33.826Z,1.15
2023-02-17T18:49:01.448Z,1.15
2023-02-17T18:51:28.734Z,1.20
2023-02-17T18:53:57.833Z,1.20
2023-02-17T18:56:28.173Z,1.30
2023-02-17T18:58:56.135Z,1.67
2023-02-17T19:01:26.533Z,1.60
2023-02-17T19:03:54.355Z,1.63
2023-02-17T19:06:27.046Z,1.85
2023-02-17T19:08:54.540Z,1.50
2023-02-17T19:11:23.222Z,3.67
2023-02-17T19:13:51.354Z,2.25
2023-02-17T19:16:21.696Z,1.80
2023-02-17T19:18:49.212Z,2.50
2023-02-17T19:21:16.838Z,13.65
2023-02-17T19:23:44.467Z,17.25
2023-02-17T19:26:13.246Z,4.82
2023-02-17T19:28:41.378Z,2.28
2023-02-17T19:31:11.347Z,2.70
2023-02-17T19:33:39.275Z,2.65
2023-02-17T19:36:11.654Z,2.83
2023-02-17T19:38:39.453Z,2.72
2023-02-17T19:41:09.292Z,2.63
2023-02-17T19:43:36.714Z,6.40
2023-02-17T19:46:04.660Z,4.57
2023-02-17T19:48:33.127Z,2.38
2023-02-17T19:51:03.175Z,2.78
2023-02-17T19:53:31.660Z,2.58
2023-02-17T19:56:11.572Z,2.78
2023-02-17T19:58:40.276Z,2.67
2023-02-17T20:01:09.565Z,2.45
2023-02-17T20:03:37.241Z,2.70
2023-02-17T20:06:10.157Z,3.60
2023-02-17T20:08:38.482Z,2.30
2023-02-17T20:11:10.365Z,2.58
2023-02-17T20:13:45.855Z,2.33
2023-02-17T20:16:15.630Z,2.95
2023-02-17T20:18:45.729Z,3.65
2023-02-17T20:21:21.828Z,3.70
2023-02-17T20:23:49.491Z,4.10
2023-02-17T20:26:23.823Z,4.28
2023-02-17T20:28:51.800Z,4.05
2023-02-17T20:31:19.847Z,4.97
2023-02-17T20:33:47.562Z,5.45
2023-02-17T20:36:14.932Z,5.07
2023-02-17T20:38:42.491Z,5.68
2023-02-17T20:41:14.029Z,6.55
2023-02-17T20:43:41.616Z,6.32
2023-02-17T20:46:14.323Z,6.35
2023-02-17T20:48:41.746Z,6.85
2023-02-17T20:51:09.079Z,8.02
2023-02-17T20:53:36.395Z,7.97
2023-02-17T20:56:03.874Z,8.13
2023-02-17T20:58:31.197Z,8.63
2023-02-17T21:00:58.577Z,8.07
2023-02-17T21:03:25.912Z,9.35
2023-02-17T21:05:53.165Z,7.57
2023-02-17T21:08:20.453Z,8.63
2023-02-17T21:10:47.793Z,8.65
2023-02-17T21:13:15.193Z,8.10
2023-02-17T21:15:42.437Z,8.60
2023-02-17T21:18:09.747Z,8.55
2023-02-17T21:20:37.212Z,8.63
2023-02-17T21:23:04.775Z,8.70
2023-02-17T21:25:32.121Z,10.48
2023-02-17T21:27:59.420Z,11.30
2023-02-17T21:30:26.784Z,11.13
2023-02-17T21:32:55.764Z,11.75
2023-02-17T21:35:23.388Z,11.70
2023-02-17T21:37:50.659Z,13.02
2023-02-17T21:40:18.010Z,18.13
2023-02-17T21:43:04.022Z,13.80
2023-02-17T21:45:37.803Z,13.07
2023-02-17T21:48:06.411Z,12.55
2023-02-17T21:50:33.804Z,12.65
2023-02-17T21:53:01.184Z,13.20
2023-02-17T21:55:28.521Z,13.25
2023-02-17T21:57:55.914Z,14.02
2023-02-17T22:00:23.446Z,14.57
2023-02-17T22:02:50.884Z,15.45
2023-02-17T22:05:18.283Z,18.00
2023-02-17T22:07:51.297Z,19.23
2023-02-17T22:10:18.689Z,20.13
2023-02-17T22:12:46.014Z,19.25
2023-02-17T22:15:16.140Z,20.42
2023-02-17T22:17:43.621Z,19.35
2023-02-17T22:20:11.456Z,19.40
2023-02-17T22:22:38.772Z,17.48
2023-02-17T22:25:06.316Z,21.15
2023-02-17T22:27:33.577Z,20.02
2023-02-17T22:30:00.874Z,19.02
2023-02-17T22:32:28.217Z,18.25
2023-02-17T22:34:55.555Z,19.65
2023-02-17T22:37:22.827Z,20.02
2023-02-17T22:39:55.820Z,20.58
2023-02-17T22:42:24.027Z,22.60
2023-02-17T22:44:51.376Z,20.73
2023-02-17T22:47:18.642Z,21.85
2023-02-17T22:49:46.029Z,20.95
2023-02-17T22:52:13.374Z,21.70
2023-02-17T22:54:41.107Z,20.30
2023-02-17T22:57:08.413Z,21.48
2023-02-17T22:59:35.829Z,19.58
2023-02-17T23:02:03.176Z,19.08
2023-02-17T23:04:30.522Z,19.88
2023-02-17T23:06:58.720Z,16.55
2023-02-17T23:09:25.997Z,17.63
2023-02-17T23:11:58.286Z,15.98
2023-02-17T23:14:34.640Z,15.90
2023-02-17T23:17:07.234Z,14.48
2023-02-17T23:19:34.880Z,14.18
2023-02-17T23:22:05.351Z,14.15
2023-02-17T23:24:32.689Z,12.30
2023-02-17T23:27:00.957Z,13.15
2023-02-17T23:29:30.789Z,11.93
2023-02-17T23:31:58.948Z,10.75
2023-02-17T23:34:26.941Z,11.43
2023-02-17T23:36:54.322Z,9.65
2023-02-17T23:39:21.760Z,9.35
2023-02-17T23:41:49.076Z,9.18
2023-02-17T23:44:16.686Z,9.05
2023-02-17T23:46:45.190Z,7.50
2023-02-17T23:49:15.095Z,7.13
2023-02-17T23:51:42.795Z,7.40
2023-02-17T23:54:10.125Z,6.10
2023-02-17T23:56:38.505Z,6.72
2023-02-17T23:59:06.122Z,5.78
